KRFD/RFD METAR and TAF weather

Enter ICAO airport designator
Station Type Date Time Source
KRFD METAR 2018/01/17 05:54 UTC NOAA

KRFD 170554Z 20004KT 10SM CLR M17/M18 A3056 RMK AO2 SLP367 4/005 I1000 I6000 T11671183 11106 21167 410671167 58003


Station Type Date Time Source
KRFD Decoded METAR 2018/01/17 05:54 UTC NOAA

GREATER ROCKFORD AIRPORT, IL, United States (KRFD) 42-12N 89-06W 221M
Jan 17, 2018 - 12:54 AM EST / 2018.01.17 0554 UTC
Wind: from the SSW (200 degrees) at 5 MPH (4 KT):0
Visibility: 10 mile(s):0
Sky conditions: clear
Weather: 5 inches of snow on ground
Temperature: 1.9 F (-16.7 C)
Windchill: -7 F (-22 C):2
Dew Point: -0.9 F (-18.3 C)
Relative Humidity: 87%
Pressure (altimeter): 30.56 in. Hg (1034 hPa)
Pressure tendency: 0.01 inches (0.3 hPa) lower than three hours ago
ob: KRFD 170554Z 20004KT 10SM CLR M17/M18 A3056 RMK AO2 SLP367 4/005 I1000 I6000 T11671183 11106 21167 410671167 58003
cycle: 6

Station Type Date Time Source
KRFD TAF 2018/01/17 06:24 UTC NOAA

TAF KRFD 170520Z 1706/1806 28006KT P6SM SKC
FM171000 26007KT P6SM SCT180
FM171600 25012G18KT P6SM SCT070
FM172100 24015G23KT P6SM SCT150


Example: see airport list